Time;durP1;ratioP1;P1;durP2;ratioP2;P2;SDS_P1;SDS_P2;PMS_P1;PMS_P2;Temp;Humidity;BMP_temperature;BMP_pressure;BME280_temperature;BME280_humidity;BME280_pressure;Samples;Min_cycle;Max_cycle;Signal;HPM_P1;HPM_P2
2022/07/30 00:02:31;;;;;;;9.55;7.20;;;16.90;99.90;;;;;;12423938;28;20185;-34
2022/07/30 00:08:33;;;;;;;11.68;6.47;;;17.00;99.90;;;;;;12425028;28;20530;-38
2022/07/30 00:14:35;;;;;;;8.90;6.82;;;17.00;99.90;;;;;;12421528;28;20053;-34
2022/07/30 00:20:39;;;;;;;10.13;7.07;;;17.00;99.90;;;;;;12417577;28;20169;-39
2022/07/30 00:26:43;;;;;;;12.95;7.88;;;17.00;99.90;;;;;;12430777;28;20050;-35
2022/07/30 00:32:45;;;;;;;10.02;7.55;;;17.00;99.90;;;;;;12425533;28;20559;-39
2022/07/30 00:38:46;;;;;;;10.65;8.68;;;17.00;99.90;;;;;;12419054;28;20057;-34
2022/07/30 00:44:48;;;;;;;13.77;9.38;;;17.00;99.90;;;;;;12434085;28;20097;-39
2022/07/30 00:50:50;;;;;;;15.30;9.13;;;17.10;99.90;;;;;;12432419;28;21526;-34
2022/07/30 00:56:52;;;;;;;13.13;10.20;;;16.90;99.90;;;;;;12432755;28;20085;-36
2022/07/30 01:02:54;;;;;;;17.30;10.52;;;16.90;99.90;;;;;;12426037;28;20060;-38
2022/07/30 01:08:56;;;;;;;14.25;10.48;;;16.90;99.90;;;;;;12428062;28;20460;-38
2022/07/30 01:15:00;;;;;;;15.48;9.57;;;16.90;99.90;;;;;;12426477;28;20038;-34
2022/07/30 01:21:08;;;;;;;13.45;9.77;;;16.90;99.90;;;;;;12415587;28;20548;-38
2022/07/30 01:27:12;;;;;;;12.40;9.48;;;16.90;99.90;;;;;;12419274;28;20425;-38
2022/07/30 01:33:20;;;;;;;12.88;9.00;;;16.90;99.90;;;;;;12430200;28;20129;-39
2022/07/30 01:39:24;;;;;;;13.68;9.00;;;17.00;99.90;;;;;;12420104;28;20576;-39
2022/07/30 01:45:29;;;;;;;14.50;9.93;;;17.00;99.90;;;;;;12432393;28;20046;-35
2022/07/30 01:51:37;;;;;;;14.82;11.18;;;16.90;99.90;;;;;;12409900;28;20061;-39
2022/07/30 01:57:40;;;;;;;20.20;12.55;;;16.70;99.90;;;;;;12407481;28;20478;-39
2022/07/30 02:03:42;;;;;;;16.67;12.27;;;16.80;99.90;;;;;;12416116;28;20873;-41
2022/07/30 02:10:03;;;;;;;22.40;11.38;;;16.80;99.90;;;;;;12405516;28;20054;-38
2022/07/30 02:16:12;;;;;;;15.63;10.45;;;16.80;99.90;;;;;;12427049;28;20058;-37
2022/07/30 02:22:17;;;;;;;15.68;11.23;;;16.90;99.90;;;;;;12426591;28;20486;-39
2022/07/30 02:28:22;;;;;;;13.77;10.73;;;16.90;99.90;;;;;;12445170;28;20394;-35
2022/07/30 02:34:24;;;;;;;;;;;16.80;99.90;;;;;;12425840;28;20128;-39
2022/07/30 02:40:27;;;;;;;15.75;11.50;;;16.80;99.90;;;;;;12450211;28;19979;-38
2022/07/30 02:46:31;;;;;;;21.83;13.10;;;16.80;99.90;;;;;;12439416;28;20049;-39
2022/07/30 02:52:34;;;;;;;15.93;11.18;;;16.70;99.90;;;;;;12444463;28;20043;-39
2022/07/30 02:58:38;;;;;;;16.90;11.00;;;16.70;99.90;;;;;;12434332;28;20103;-39
2022/07/30 03:04:41;;;;;;;15.77;11.38;;;16.80;99.90;;;;;;12413979;28;20524;-34
2022/07/30 03:10:44;;;;;;;20.05;11.60;;;16.80;99.90;;;;;;12451901;28;20119;-39
2022/07/30 03:16:52;;;;;;;18.52;12.30;;;16.70;99.90;;;;;;12451353;28;20107;-39
2022/07/30 03:22:57;;;;;;;13.90;11.10;;;16.60;99.90;;;;;;12448432;28;20185;-39
2022/07/30 03:29:00;;;;;;;11.50;9.82;;;16.50;99.90;;;;;;12437880;28;20085;-34
2022/07/30 03:35:02;;;;;;;15.85;9.77;;;16.40;99.90;;;;;;12430068;28;20042;-34
2022/07/30 03:41:10;;;;;;;15.23;9.38;;;16.30;99.90;;;;;;12428881;28;20057;-39
2022/07/30 03:47:14;;;;;;;17.48;10.80;;;16.30;99.90;;;;;;12427970;28;20079;-39
2022/07/30 03:53:16;;;;;;;16.05;9.68;;;16.30;99.90;;;;;;12413224;28;20057;-34
2022/07/30 03:59:18;;;;;;;14.38;8.98;;;16.40;99.90;;;;;;12440671;28;20509;-35
2022/07/30 04:05:20;;;;;;;15.55;9.93;;;16.40;99.90;;;;;;12439412;28;20050;-39
2022/07/30 04:11:22;;;;;;;18.73;10.00;;;16.40;99.90;;;;;;12429842;28;20094;-34
2022/07/30 04:17:47;;;;;;;16.38;9.43;;;16.40;99.90;;;;;;12426405;28;20057;-39
2022/07/30 04:23:50;;;;;;;13.80;10.23;;;16.40;99.90;;;;;;12440551;28;20054;-39
2022/07/30 04:30:06;;;;;;;12.18;8.50;;;16.30;99.90;;;;;;12419268;28;20050;-39
2022/07/30 04:36:08;;;;;;;11.65;8.90;;;16.40;99.90;;;;;;12401463;28;20180;-39
2022/07/30 04:42:13;;;;;;;17.13;11.43;;;16.40;99.90;;;;;;12420042;28;20054;-35
2022/07/30 04:48:15;;;;;;;19.42;11.00;;;16.40;99.90;;;;;;12435423;28;20460;-35
2022/07/30 04:54:19;;;;;;;15.10;10.63;;;16.30;99.90;;;;;;12427978;28;20465;-35
2022/07/30 05:00:21;;;;;;;;;;;16.20;99.90;;;;;;12424069;28;20065;-40
2022/07/30 05:06:23;;;;;;;13.52;10.52;;;16.30;99.90;;;;;;12421784;28;20301;-39
2022/07/30 05:12:38;;;;;;;16.90;12.93;;;16.40;99.90;;;;;;12430643;28;20046;-39
2022/07/30 05:18:41;;;;;;;20.80;12.73;;;16.50;99.90;;;;;;12415595;28;20473;-39
2022/07/30 05:24:42;;;;;;;16.98;12.88;;;16.50;99.90;;;;;;12428787;28;20403;-35
2022/07/30 05:30:44;;;;;;;19.13;11.45;;;16.50;99.90;;;;;;12408811;28;20046;-40
2022/07/30 05:36:47;;;;;;;17.17;12.05;;;16.30;99.90;;;;;;12416849;28;20407;-39
2022/07/30 05:42:49;;;;;;;12.70;10.85;;;16.50;99.90;;;;;;12422364;28;20050;-40
2022/07/30 05:48:51;;;;;;;12.60;9.55;;;16.50;99.90;;;;;;12422531;28;20627;-39
2022/07/30 05:54:53;;;;;;;13.48;9.65;;;16.50;99.90;;;;;;12412958;28;20050;-40
2022/07/30 06:00:54;;;;;;;11.23;9.93;;;16.50;99.90;;;;;;12414885;28;20163;-35
2022/07/30 06:06:56;;;;;;;15.13;10.18;;;16.60;99.90;;;;;;12425553;28;20422;-35
2022/07/30 06:12:58;;;;;;;19.05;10.13;;;16.60;99.90;;;;;;12419344;28;20042;-38
2022/07/30 06:19:00;;;;;;;13.13;9.63;;;16.60;99.90;;;;;;12383938;28;20667;-35
2022/07/30 06:25:02;;;;;;;13.68;10.85;;;16.60;99.90;;;;;;12417625;28;20526;-39
2022/07/30 06:31:04;;;;;;;14.50;10.93;;;16.60;99.90;;;;;;12418057;28;20140;-35
2022/07/30 06:37:06;;;;;;;14.93;10.98;;;16.70;99.90;;;;;;12409827;28;20074;-34
2022/07/30 06:43:08;;;;;;;14.82;10.27;;;16.70;99.90;;;;;;12416207;28;20090;-35
2022/07/30 06:49:09;;;;;;;15.77;11.77;;;16.80;99.90;;;;;;12422864;28;20053;-39
2022/07/30 06:55:12;;;;;;;18.95;14.13;;;16.90;99.90;;;;;;12416476;28;20068;-35
2022/07/30 07:01:14;;;;;;;18.35;14.90;;;16.80;99.90;;;;;;12416799;28;20516;-35
2022/07/30 07:07:16;;;;;;;15.98;12.68;;;16.80;99.90;;;;;;12406034;28;20050;-35
2022/07/30 07:13:38;;;;;;;13.73;11.10;;;17.10;99.90;;;;;;12429717;28;20042;-35
2022/07/30 07:19:40;;;;;;;13.88;8.00;;;17.00;99.90;;;;;;12424526;28;20061;-34
2022/07/30 07:26:02;;;;;;;12.00;8.63;;;17.20;99.90;;;;;;12404050;28;20061;-39
2022/07/30 07:32:04;;;;;;;12.70;7.60;;;17.30;99.90;;;;;;12406181;28;20046;-39
2022/07/30 07:38:08;;;;;;;10.88;6.82;;;17.30;99.90;;;;;;12423254;28;20058;-39
2022/07/30 07:44:10;;;;;;;11.73;7.13;;;17.30;99.90;;;;;;12431703;28;20099;-35
2022/07/30 07:50:14;;;;;;;10.77;6.97;;;17.40;99.90;;;;;;12427353;28;20046;-35
2022/07/30 07:56:16;;;;;;;8.95;6.30;;;17.50;99.90;;;;;;12421679;28;20108;-39
2022/07/30 08:02:18;;;;;;;10.05;6.68;;;17.60;99.90;;;;;;12424635;28;20129;-35
2022/07/30 08:08:20;;;;;;;10.45;5.97;;;17.70;99.90;;;;;;12421976;28;20132;-40
2022/07/30 08:14:22;;;;;;;14.95;7.60;;;17.90;99.90;;;;;;12426313;28;20453;-40
2022/07/30 08:20:24;;;;;;;11.77;7.30;;;18.10;99.90;;;;;;12432664;28;20495;-35
2022/07/30 08:26:25;;;;;;;13.10;8.45;;;18.50;99.90;;;;;;12401835;28;20046;-40
2022/07/30 08:32:27;;;;;;;13.40;7.28;;;18.80;99.90;;;;;;12390430;28;20129;-39
2022/07/30 08:38:29;;;;;;;11.77;7.13;;;19.00;99.90;;;;;;12417042;28;20464;-35
2022/07/30 08:44:32;;;;;;;9.57;7.80;;;19.20;99.90;;;;;;12423343;28;20126;-39
2022/07/30 08:50:35;;;;;;;10.80;8.00;;;19.10;99.90;;;;;;12424517;28;20046;-39
2022/07/30 08:56:37;;;;;;;11.93;9.10;;;19.20;99.90;;;;;;12424930;28;20108;-35
2022/07/30 09:02:38;;;;;;;13.27;8.55;;;19.50;99.90;;;;;;12425762;28;20054;-35
2022/07/30 09:08:41;;;;;;;15.93;8.63;;;19.60;99.90;;;;;;12419594;28;20046;-35
2022/07/30 09:15:02;;;;;;;13.95;9.23;;;19.60;99.90;;;;;;12414132;28;20093;-39
2022/07/30 09:21:36;;;;;;;15.38;9.02;;;19.40;99.90;;;;;;12413727;28;20092;-41
2022/07/30 09:27:48;;;;;;;13.02;8.88;;;19.60;99.90;;;;;;12374398;28;20099;-35
2022/07/30 09:33:50;;;;;;;9.80;6.85;;;19.70;99.90;;;;;;12412010;28;20092;-35
2022/07/30 09:39:52;;;;;;;15.20;7.15;;;19.90;99.90;;;;;;12432103;28;20472;-35
2022/07/30 09:46:00;;;;;;;9.55;6.90;;;20.10;99.90;;;;;;12437702;28;20085;-35
2022/07/30 09:52:02;;;;;;;12.00;6.30;;;20.10;99.90;;;;;;12398470;28;20477;-35
2022/07/30 09:58:07;;;;;;;11.40;6.55;;;20.40;99.90;;;;;;12416511;28;20140;-35
2022/07/30 10:04:08;;;;;;;11.45;6.75;;;20.70;99.90;;;;;;12421958;28;20537;-39
2022/07/30 10:10:11;;;;;;;8.17;5.07;;;21.10;99.90;;;;;;12411497;28;20868;-40
2022/07/30 10:16:18;;;;;;;6.47;4.07;;;21.40;99.90;;;;;;12422679;28;20056;-39
2022/07/30 10:22:19;;;;;;;5.43;3.70;;;21.70;99.90;;;;;;12423701;28;20046;-41
2022/07/30 10:28:23;;;;;;;6.93;3.63;;;21.80;99.90;;;;;;12415171;28;20054;-40
2022/07/30 10:34:26;;;;;;;;;;;22.10;99.90;;;;;;12417541;28;20462;-39
2022/07/30 10:40:45;;;;;;;5.30;3.08;;;22.20;99.90;;;;;;12423075;28;20307;-35
2022/07/30 10:47:04;;;;;;;7.43;3.15;;;22.40;99.90;;;;;;12420200;28;20518;-35
2022/07/30 10:53:08;;;;;;;7.88;2.92;;;22.50;99.90;;;;;;12417509;28;20053;-40
2022/07/30 10:59:11;;;;;;;6.28;2.97;;;22.70;99.90;;;;;;12423655;28;20054;-35
2022/07/30 11:05:18;;;;;;;5.47;3.05;;;22.60;99.90;;;;;;12431495;28;20045;-35
2022/07/30 11:11:40;;;;;;;5.45;3.35;;;22.60;99.90;;;;;;12413727;28;20046;-36
2022/07/30 11:18:09;;;;;;;8.98;3.97;;;22.80;99.90;;;;;;12423204;28;20387;-36
2022/07/30 11:24:45;;;;;;;7.80;3.70;;;22.60;99.90;;;;;;12423096;28;20076;-36
2022/07/30 11:30:48;;;;;;;6.30;3.22;;;22.80;99.90;;;;;;12406997;28;20058;-40
2022/07/30 11:37:13;;;;;;;10.15;3.08;;;22.70;99.90;;;;;;12431407;28;20046;-36
2022/07/30 11:43:31;;;;;;;5.38;2.80;;;23.10;99.90;;;;;;12435893;28;20057;-35
2022/07/30 11:49:37;;;;;;;6.13;3.00;;;22.80;99.90;;;;;;12427667;28;20080;-37
2022/07/30 11:55:41;;;;;;;5.43;3.20;;;22.60;99.90;;;;;;12431388;28;20394;-40
2022/07/30 12:01:47;;;;;;;8.40;3.10;;;22.20;99.90;;;;;;12427490;28;20046;-36
2022/07/30 12:07:49;;;;;;;7.32;3.75;;;22.30;99.90;;;;;;12428549;28;20134;-36
2022/07/30 12:13:58;;;;;;;6.50;3.33;;;22.40;99.90;;;;;;12418704;28;20100;-35
2022/07/30 12:20:00;;;;;;;7.03;3.63;;;22.90;99.90;;;;;;12429676;28;20502;-35
2022/07/30 12:26:03;;;;;;;4.30;2.72;;;23.20;99.90;;;;;;12412540;28;20125;-39
2022/07/30 12:32:04;;;;;;;7.20;3.08;;;23.60;99.90;;;;;;12416373;28;20054;-36
2022/07/30 12:38:06;;;;;;;11.52;2.85;;;23.60;99.90;;;;;;12409926;28;20062;-36
2022/07/30 12:44:08;;;;;;;7.57;3.28;;;23.30;99.90;;;;;;12412356;28;20540;-36
2022/07/30 12:50:20;;;;;;;6.15;2.75;;;22.90;99.90;;;;;;12412802;28;20062;-40
2022/07/30 12:56:26;;;;;;;5.63;2.53;;;23.00;99.90;;;;;;12418514;28;20133;-41
2022/07/30 13:02:35;;;;;;;5.95;2.40;;;23.20;99.90;;;;;;12420013;28;20046;-35
2022/07/30 13:08:52;;;;;;;7.38;2.65;;;23.10;99.90;;;;;;12423288;28;20052;-35
2022/07/30 13:14:54;;;;;;;10.90;3.00;;;23.50;99.90;;;;;;12418123;28;20050;-36
2022/07/30 13:20:57;;;;;;;5.20;2.72;;;23.90;99.90;;;;;;12412087;28;20045;-40
2022/07/30 13:26:58;;;;;;;7.22;2.80;;;24.00;99.90;;;;;;12415926;28;20055;-36
2022/07/30 13:33:00;;;;;;;9.57;2.85;;;23.70;99.90;;;;;;12416436;28;20379;-35
2022/07/30 13:39:02;;;;;;;5.40;2.63;;;23.50;99.90;;;;;;12412923;28;20064;-40
2022/07/30 13:45:05;;;;;;;3.92;2.53;;;23.40;99.90;;;;;;12410834;28;20565;-39
2022/07/30 13:51:06;;;;;;;5.50;2.40;;;23.20;99.90;;;;;;12424776;28;20403;-41
2022/07/30 13:57:08;;;;;;;5.38;2.42;;;23.10;99.90;;;;;;12410233;28;20054;-36
2022/07/30 14:03:11;;;;;;;5.00;2.35;;;23.90;99.90;;;;;;12428421;28;20514;-40
2022/07/30 14:09:13;;;;;;;5.28;2.35;;;23.80;99.90;;;;;;12421349;28;20093;-40
2022/07/30 14:15:15;;;;;;;5.50;2.60;;;23.90;99.90;;;;;;12415414;28;20046;-36
2022/07/30 14:21:18;;;;;;;8.52;2.50;;;23.70;99.90;;;;;;12401437;28;20499;-36
2022/07/30 14:27:20;;;;;;;6.10;2.50;;;23.40;99.90;;;;;;12414659;28;20058;-40
2022/07/30 14:33:23;;;;;;;6.78;2.30;;;23.20;99.90;;;;;;12390935;28;20132;-36
2022/07/30 14:39:24;;;;;;;7.78;2.50;;;23.10;99.90;;;;;;12422788;28;20057;-35
2022/07/30 14:45:26;;;;;;;5.00;2.20;;;23.10;99.90;;;;;;12410315;28;20469;-41
2022/07/30 14:51:29;;;;;;;9.15;2.45;;;23.20;99.90;;;;;;12406660;28;20490;-42
2022/07/30 14:57:35;;;;;;;5.07;1.88;;;23.50;99.90;;;;;;12425967;28;20054;-41
2022/07/30 15:03:37;;;;;;;4.00;2.30;;;23.50;99.90;;;;;;12406418;28;20177;-36
2022/07/30 15:09:39;;;;;;;5.65;2.42;;;23.90;99.90;;;;;;12403964;28;20046;-39
2022/07/30 15:15:41;;;;;;;6.55;2.35;;;23.80;99.90;;;;;;12413945;28;20383;-36
2022/07/30 15:21:46;;;;;;;4.35;2.00;;;23.50;99.90;;;;;;12417433;28;20084;-36
2022/07/30 15:27:48;;;;;;;7.45;2.40;;;23.40;99.90;;;;;;12409318;28;20141;-41
2022/07/30 15:33:50;;;;;;;5.85;2.53;;;23.10;99.90;;;;;;12421916;28;20953;-36
2022/07/30 15:39:54;;;;;;;3.88;1.92;;;23.00;99.90;;;;;;12424633;28;20058;-41
2022/07/30 15:45:56;;;;;;;5.95;2.30;;;23.00;99.90;;;;;;12426775;28;20153;-40
2022/07/30 15:51:58;;;;;;;4.57;2.40;;;23.00;99.90;;;;;;12422605;28;20054;-40
2022/07/30 15:58:00;;;;;;;5.77;2.53;;;23.00;99.90;;;;;;12411381;28;20153;-35
2022/07/30 16:04:02;;;;;;;7.43;2.45;;;23.00;99.90;;;;;;12386258;28;20141;-44
2022/07/30 16:10:05;;;;;;;6.00;2.40;;;22.90;99.90;;;;;;12418577;28;20058;-36
2022/07/30 16:16:07;;;;;;;8.10;2.13;;;22.90;99.90;;;;;;12392987;28;20358;-40
2022/07/30 16:22:09;;;;;;;6.82;2.00;;;22.90;99.90;;;;;;12419587;28;20057;-41
2022/07/30 16:28:11;;;;;;;10.38;2.33;;;22.80;99.90;;;;;;12418501;28;20166;-36
2022/07/30 16:34:13;;;;;;;3.90;1.90;;;22.80;99.90;;;;;;12407970;28;20046;-36
2022/07/30 16:40:15;;;;;;;6.03;2.20;;;22.80;99.90;;;;;;12410713;28;20057;-36
2022/07/30 16:46:17;;;;;;;6.72;2.72;;;22.80;99.90;;;;;;12415494;28;20348;-35
2022/07/30 16:52:20;;;;;;;5.77;1.97;;;22.70;99.90;;;;;;12412942;28;20096;-40
2022/07/30 16:58:27;;;;;;;7.85;2.17;;;23.00;99.90;;;;;;12410950;28;20046;-36
2022/07/30 17:04:33;;;;;;;4.85;1.88;;;23.00;99.90;;;;;;12416784;28;20176;-35
2022/07/30 17:10:35;;;;;;;4.40;1.67;;;23.20;99.90;;;;;;12410943;28;20532;-36
2022/07/30 17:16:37;;;;;;;6.97;2.00;;;23.30;99.90;;;;;;12417599;28;20049;-36
2022/07/30 17:22:39;;;;;;;4.00;2.03;;;23.20;99.90;;;;;;12423854;28;20049;-39
2022/07/30 17:28:43;;;;;;;4.50;1.83;;;23.00;99.90;;;;;;12417418;28;20046;-36
2022/07/30 17:34:47;;;;;;;4.43;1.50;;;22.80;99.90;;;;;;12410204;28;20050;-36
2022/07/30 17:40:49;;;;;;;4.05;1.73;;;22.80;99.90;;;;;;12412326;28;20053;-40
2022/07/30 17:46:51;;;;;;;6.28;2.03;;;23.00;99.90;;;;;;12420010;28;20418;-40
2022/07/30 17:52:52;;;;;;;7.35;1.98;;;23.30;99.90;;;;;;12405806;28;20046;-35
2022/07/30 17:58:54;;;;;;;4.72;1.50;;;23.90;99.90;;;;;;12412674;28;20054;-36
2022/07/30 18:04:56;;;;;;;2.75;1.60;;;24.00;99.90;;;;;;12408898;28;20046;-40
2022/07/30 18:10:58;;;;;;;5.80;1.92;;;23.60;99.90;;;;;;12408191;28;20050;-39
2022/07/30 18:17:01;;;;;;;3.72;1.75;;;23.30;99.90;;;;;;12426574;28;20115;-35
2022/07/30 18:23:06;;;;;;;3.95;1.80;;;23.00;99.90;;;;;;12430283;28;20050;-35
2022/07/30 18:29:10;;;;;;;6.50;1.50;;;22.90;99.90;;;;;;12411158;28;20097;-36
2022/07/30 18:35:14;;;;;;;6.78;1.92;;;22.80;99.90;;;;;;12417123;28;20050;-36
2022/07/30 18:41:17;;;;;;;3.50;1.48;;;22.70;99.90;;;;;;12416677;28;20185;-35
2022/07/30 18:47:19;;;;;;;2.88;1.55;;;22.50;99.90;;;;;;12431859;28;20435;-35
2022/07/30 18:53:21;;;;;;;3.35;1.80;;;22.50;99.90;;;;;;12427328;28;20477;-35
2022/07/30 18:59:23;;;;;;;4.93;1.67;;;22.20;99.90;;;;;;12429630;28;20072;-42
2022/07/30 19:05:25;;;;;;;4.40;1.58;;;22.00;99.90;;;;;;12395894;28;20042;-36
2022/07/30 19:11:26;;;;;;;3.90;1.95;;;21.90;99.90;;;;;;12437159;28;20050;-36
2022/07/30 19:17:28;;;;;;;3.97;1.33;;;21.80;99.90;;;;;;12428296;28;20069;-36
2022/07/30 19:23:47;;;;;;;6.07;1.67;;;21.70;99.90;;;;;;12427478;28;20050;-35
2022/07/30 19:29:49;;;;;;;5.30;1.77;;;21.60;99.90;;;;;;12435655;28;20196;-35
2022/07/30 19:35:51;;;;;;;4.60;1.50;;;21.60;99.90;;;;;;12425888;28;20050;-37
2022/07/30 19:41:53;;;;;;;4.35;1.35;;;21.50;99.90;;;;;;12437344;28;20061;-39
2022/07/30 19:47:55;;;;;;;5.30;1.58;;;21.30;99.90;;;;;;12430164;28;20060;-39
2022/07/30 19:53:57;;;;;;;4.00;1.42;;;21.20;99.90;;;;;;12421585;28;20092;-35
2022/07/30 19:59:59;;;;;;;4.38;1.52;;;21.10;99.90;;;;;;12430851;28;20057;-40
2022/07/30 20:06:06;;;;;;;3.85;1.30;;;20.90;99.90;;;;;;12435104;28;20073;-35
2022/07/30 20:12:08;;;;;;;4.60;1.30;;;20.90;99.90;;;;;;12433576;28;20049;-37
2022/07/30 20:18:10;;;;;;;3.22;1.38;;;20.90;99.90;;;;;;12416907;28;20058;-36
2022/07/30 20:24:13;;;;;;;5.15;1.40;;;20.80;99.90;;;;;;12415276;28;20049;-35
2022/07/30 20:30:16;;;;;;;7.30;1.80;;;20.80;99.90;;;;;;12421896;28;20046;-35
2022/07/30 20:36:26;;;;;;;3.90;1.48;;;20.80;99.90;;;;;;12423787;28;20058;-35
2022/07/30 20:42:28;;;;;;;3.75;1.50;;;20.70;99.90;;;;;;12417832;28;20061;-40
2022/07/30 20:48:33;;;;;;;3.10;1.70;;;20.80;99.90;;;;;;12426280;28;20560;-41
2022/07/30 20:54:36;;;;;;;4.45;1.75;;;20.80;99.90;;;;;;12432306;28;20048;-39
2022/07/30 21:00:45;;;;;;;3.53;1.67;;;20.80;99.90;;;;;;12425093;28;20053;-35
2022/07/30 21:06:51;;;;;;;5.57;1.70;;;20.70;99.90;;;;;;12428443;28;20050;-41
2022/07/30 21:12:53;;;;;;;3.60;1.40;;;20.60;99.90;;;;;;12425582;28;20046;-35
2022/07/30 21:19:09;;;;;;;3.92;1.52;;;20.50;99.90;;;;;;12431564;28;20078;-35
2022/07/30 21:25:11;;;;;;;4.57;1.92;;;20.40;99.90;;;;;;12425505;28;20071;-39
2022/07/30 21:31:12;;;;;;;4.13;1.70;;;20.10;99.90;;;;;;12434120;28;20054;-35
2022/07/30 21:37:15;;;;;;;5.45;1.83;;;20.10;99.90;;;;;;12424149;28;20426;-39
2022/07/30 21:43:16;;;;;;;4.43;2.30;;;20.00;99.90;;;;;;12421471;28;20050;-39
2022/07/30 21:49:30;;;;;;;7.88;2.78;;;19.90;99.90;;;;;;12419433;28;20418;-35
2022/07/30 21:55:32;;;;;;;8.23;2.70;;;19.60;99.90;;;;;;12412979;28;20074;-40
2022/07/30 22:01:54;;;;;;;5.60;2.40;;;19.60;99.90;;;;;;12401225;28;20086;-35
2022/07/30 22:07:56;;;;;;;7.25;2.80;;;19.60;99.90;;;;;;12420179;28;20125;-39
2022/07/30 22:13:58;;;;;;;6.72;2.95;;;19.80;99.90;;;;;;12407670;28;20137;-40
2022/07/30 22:20:02;;;;;;;8.00;3.30;;;19.70;99.90;;;;;;12405679;28;20564;-35
2022/07/30 22:26:04;;;;;;;7.10;3.53;;;19.70;99.90;;;;;;12410183;28;20391;-35
2022/07/30 22:32:07;;;;;;;8.07;4.20;;;19.80;99.90;;;;;;12423786;28;20058;-35
2022/07/30 22:38:09;;;;;;;8.75;3.58;;;19.80;99.90;;;;;;12403222;28;20053;-40
2022/07/30 22:44:12;;;;;;;8.23;3.30;;;19.70;99.90;;;;;;12419604;28;20527;-40
2022/07/30 22:50:14;;;;;;;7.22;3.63;;;19.70;99.90;;;;;;12425084;28;20437;-40
2022/07/30 22:56:20;;;;;;;9.77;3.80;;;19.70;99.90;;;;;;12430200;28;20383;-35
2022/07/30 23:02:24;;;;;;;6.90;3.50;;;19.60;99.90;;;;;;12427632;28;20042;-39
2022/07/30 23:08:28;;;;;;;;;;;19.60;99.90;;;;;;12427261;28;20529;-35
2022/07/30 23:14:31;;;;;;;8.68;3.95;;;19.50;99.90;;;;;;12435529;28;20516;-35
2022/07/30 23:20:33;;;;;;;7.55;3.95;;;19.40;99.90;;;;;;12428126;28;20050;-35
2022/07/30 23:26:35;;;;;;;10.77;4.50;;;19.40;99.90;;;;;;12425746;28;20104;-39
2022/07/30 23:32:41;;;;;;;5.93;3.80;;;19.30;99.90;;;;;;12419858;28;20054;-35
2022/07/30 23:38:43;;;;;;;6.38;4.00;;;19.30;99.90;;;;;;12417336;28;20049;-35
2022/07/30 23:44:46;;;;;;;;;;;19.30;99.90;;;;;;12418110;28;20046;-39
2022/07/30 23:50:48;;;;;;;6.97;3.97;;;19.40;99.90;;;;;;12426044;28;19989;-35
2022/07/30 23:56:54;;;;;;;6.60;3.60;;;19.20;99.90;;;;;;12408890;28;20058;-35
